createdAt,value
2023-02-27T00:00:55.050Z,-0.63
2023-02-27T00:02:58.625Z,-0.66
2023-02-27T00:05:01.778Z,-0.75
2023-02-27T00:07:04.921Z,-0.66
2023-02-27T00:09:08.727Z,-0.65
2023-02-27T00:11:11.518Z,-0.62
2023-02-27T00:13:15.886Z,-0.64
2023-02-27T00:15:20.423Z,-0.63
2023-02-27T00:17:26.133Z,-0.60
2023-02-27T00:19:28.742Z,-0.60
2023-02-27T00:21:32.043Z,-0.58
2023-02-27T00:23:34.820Z,-0.58
2023-02-27T00:25:37.887Z,-0.61
2023-02-27T00:27:41.321Z,-0.66
2023-02-27T00:29:45.717Z,-0.72
2023-02-27T00:31:48.608Z,-0.65
2023-02-27T00:33:51.856Z,-0.65
2023-02-27T00:35:58.153Z,-0.60
2023-02-27T00:38:01.418Z,-0.61
2023-02-27T00:40:05.747Z,-0.64
2023-02-27T00:42:09.256Z,-0.62
2023-02-27T00:44:12.155Z,-0.62
2023-02-27T00:46:16.637Z,-0.60
2023-02-27T00:48:20.996Z,-0.58
2023-02-27T00:50:24.454Z,-0.54
2023-02-27T00:52:27.436Z,-0.52
2023-02-27T00:54:30.335Z,-0.55
2023-02-27T00:56:35.097Z,-0.55
2023-02-27T00:58:37.985Z,-0.53
2023-02-27T01:00:41.159Z,-0.50
2023-02-27T01:02:45.635Z,-0.53
2023-02-27T01:04:48.595Z,-0.50
2023-02-27T01:06:51.518Z,-0.51
2023-02-27T01:08:56.369Z,-0.52
2023-02-27T01:11:00.734Z,-0.50
2023-02-27T01:13:07.114Z,-0.50
2023-02-27T01:15:11.549Z,-0.54
2023-02-27T01:17:14.500Z,-0.55
2023-02-27T01:19:19.196Z,-0.57
2023-02-27T01:21:22.123Z,-0.57
2023-02-27T01:23:25.062Z,-0.57
2023-02-27T01:25:28.013Z,-0.54
2023-02-27T01:27:31.122Z,-0.56
2023-02-27T01:29:34.606Z,-0.58
2023-02-27T01:31:37.872Z,-0.55
2023-02-27T01:33:40.822Z,-0.58
2023-02-27T01:35:45.385Z,-0.60
2023-02-27T01:37:48.214Z,-0.54
2023-02-27T01:39:51.152Z,-0.53
2023-02-27T01:41:54.325Z,-0.51
2023-02-27T01:43:59.753Z,-0.49
2023-02-27T01:46:02.687Z,-0.52
2023-02-27T01:48:14.820Z,-0.53
2023-02-27T01:50:19.493Z,-0.55
2023-02-27T01:52:23.999Z,-0.52
2023-02-27T01:54:28.491Z,-0.55
2023-02-27T01:56:32.682Z,-0.55
2023-02-27T01:58:35.739Z,-0.50
2023-02-27T02:00:39.341Z,-0.53
2023-02-27T02:02:48.020Z,-0.52
2023-02-27T02:04:51.660Z,-0.52
2023-02-27T02:07:01.204Z,-0.50
2023-02-27T02:09:07.559Z,-0.50
2023-02-27T02:11:11.040Z,-0.51
2023-02-27T02:13:14.360Z,-0.54
2023-02-27T02:15:17.631Z,-0.54
2023-02-27T02:17:31.992Z,-0.52
2023-02-27T02:19:54.968Z,-0.52
2023-02-27T02:22:36.214Z,-0.57
2023-02-27T02:25:26.197Z,-0.60
2023-02-27T02:27:44.531Z,-0.56
2023-02-27T02:30:37.435Z,-0.53
2023-02-27T02:33:24.578Z,-0.60
2023-02-27T02:36:06.033Z,-0.58
2023-02-27T02:38:41.898Z,-0.58
2023-02-27T02:40:57.058Z,-0.69
2023-02-27T02:43:10.294Z,-0.68
2023-02-27T02:45:22.407Z,-0.68
2023-02-27T02:47:34.960Z,-0.66
2023-02-27T02:49:50.339Z,-0.71
2023-02-27T02:51:57.091Z,-0.71
2023-02-27T02:54:05.313Z,-0.66
2023-02-27T02:56:15.442Z,-0.75
2023-02-27T02:58:26.870Z,-0.71
2023-02-27T03:00:34.171Z,-0.65
2023-02-27T03:02:42.949Z,-0.65
2023-02-27T03:04:53.994Z,-0.65
2023-02-27T03:07:03.192Z,-0.64
2023-02-27T03:09:12.644Z,-0.62
2023-02-27T03:11:17.101Z,-0.70
2023-02-27T03:13:25.210Z,-0.66
2023-02-27T03:15:34.097Z,-0.68
2023-02-27T03:17:41.460Z,-0.66
2023-02-27T03:19:50.370Z,-0.66
2023-02-27T03:22:00.061Z,-0.70
2023-02-27T03:24:06.425Z,-0.73
2023-02-27T03:26:14.039Z,-0.71
2023-02-27T03:28:23.906Z,-0.69
2023-02-27T03:30:35.338Z,-0.72
2023-02-27T03:32:46.214Z,-0.70
2023-02-27T03:34:50.395Z,-0.70
2023-02-27T03:37:00.234Z,-0.71
2023-02-27T03:39:09.854Z,-0.68
2023-02-27T03:41:21.460Z,-0.69
2023-02-27T03:43:45.074Z,-0.70
2023-02-27T03:45:56.383Z,-0.68
2023-02-27T03:47:59.584Z,-0.67
2023-02-27T03:50:02.790Z,-0.66
2023-02-27T03:52:05.791Z,-0.67
2023-02-27T03:54:14.232Z,-0.68
2023-02-27T03:56:21.952Z,-0.70
2023-02-27T03:58:25.326Z,-0.78
2023-02-27T04:00:30.183Z,-0.72
2023-02-27T04:02:34.024Z,-0.76
2023-02-27T04:04:37.243Z,-0.69
2023-02-27T04:07:22.664Z,-0.71
2023-02-27T04:09:38.663Z,-0.71
2023-02-27T04:12:03.141Z,-0.83
2023-02-27T04:14:36.923Z,-0.80
2023-02-27T04:17:01.842Z,-0.76
2023-02-27T04:19:17.515Z,-0.74
2023-02-27T04:21:27.512Z,-0.77
2023-02-27T04:23:38.733Z,-0.78
2023-02-27T04:25:52.651Z,-0.74
2023-02-27T04:27:59.164Z,-0.71
2023-02-27T04:30:13.626Z,-0.81
2023-02-27T04:32:26.053Z,-0.80
2023-02-27T04:34:34.740Z,-0.84
2023-02-27T04:36:43.350Z,-0.83
2023-02-27T04:38:51.089Z,-0.83
2023-02-27T04:40:59.517Z,-0.79
2023-02-27T04:43:06.259Z,-0.80
2023-02-27T04:45:15.206Z,-0.87
2023-02-27T04:47:22.070Z,-0.80
2023-02-27T04:49:29.251Z,-0.87
2023-02-27T04:51:37.629Z,-0.84
2023-02-27T04:53:49.895Z,-0.83
2023-02-27T04:55:57.615Z,-0.82
2023-02-27T04:58:05.841Z,-0.78
2023-02-27T05:00:14.148Z,-0.79
2023-02-27T05:02:25.457Z,-0.71
2023-02-27T05:04:32.830Z,-0.76
2023-02-27T05:06:38.941Z,-0.74
2023-02-27T05:08:48.534Z,-0.76
2023-02-27T05:10:57.941Z,-0.75
2023-02-27T05:13:07.004Z,-0.74
2023-02-27T05:15:14.671Z,-0.78
2023-02-27T05:17:23.300Z,-0.75
2023-02-27T05:19:26.319Z,-0.78
2023-02-27T05:21:36.239Z,-0.81
2023-02-27T05:23:45.458Z,-0.84
2023-02-27T05:25:55.789Z,-0.83
2023-02-27T05:28:02.442Z,-0.86
2023-02-27T05:30:12.833Z,-0.82
2023-02-27T05:32:27.270Z,-0.82
2023-02-27T05:34:38.085Z,-0.89
2023-02-27T05:36:46.394Z,-0.83
2023-02-27T05:38:53.554Z,-0.87
2023-02-27T05:41:01.858Z,-0.85
2023-02-27T05:43:11.484Z,-0.79
2023-02-27T05:45:18.522Z,-0.79
2023-02-27T05:47:27.499Z,-0.84
2023-02-27T05:49:34.062Z,-0.80
2023-02-27T05:51:39.977Z,-0.86
2023-02-27T05:53:47.416Z,-0.81
2023-02-27T05:55:53.677Z,-0.88
2023-02-27T05:58:01.726Z,-0.88
2023-02-27T06:00:10.665Z,-0.85
2023-02-27T06:02:16.655Z,-0.82
2023-02-27T06:04:21.229Z,-0.81
2023-02-27T06:06:24.310Z,-0.77
2023-02-27T06:08:28.071Z,-0.78
2023-02-27T06:10:31.346Z,-0.76
2023-02-27T06:12:34.400Z,-0.76
2023-02-27T06:14:37.235Z,-0.82
2023-02-27T06:16:40.365Z,-0.77
2023-02-27T06:18:43.269Z,-0.74
2023-02-27T06:20:48.181Z,-0.74
2023-02-27T06:22:51.069Z,-0.77
2023-02-27T06:24:54.799Z,-0.75
2023-02-27T06:26:57.858Z,-0.70
2023-02-27T06:29:00.808Z,-0.67
2023-02-27T06:31:03.761Z,-0.74
2023-02-27T06:33:06.725Z,-0.74
2023-02-27T06:35:10.810Z,-0.75
2023-02-27T06:37:15.365Z,-0.77
2023-02-27T06:39:18.321Z,-0.75
2023-02-27T06:41:21.314Z,-0.69
2023-02-27T06:43:24.184Z,-0.77
2023-02-27T06:45:27.205Z,-0.71
2023-02-27T06:47:30.343Z,-0.66
2023-02-27T06:49:33.273Z,-0.67
2023-02-27T06:51:36.275Z,-0.69
2023-02-27T06:53:40.744Z,-0.72
2023-02-27T06:55:43.642Z,-0.71
2023-02-27T06:57:46.903Z,-0.65
2023-02-27T06:59:49.772Z,-0.73
2023-02-27T07:01:53.153Z,-0.69
2023-02-27T07:03:56.102Z,-0.64
2023-02-27T07:05:59.897Z,-0.61
2023-02-27T07:08:04.232Z,-0.56
2023-02-27T07:10:12.094Z,-0.55
2023-02-27T07:12:15.273Z,-0.55
2023-02-27T07:14:18.281Z,-0.59
2023-02-27T07:16:21.468Z,-0.59
2023-02-27T07:18:25.883Z,-0.49
2023-02-27T07:20:28.815Z,-0.49
2023-02-27T07:22:31.895Z,-0.54
2023-02-27T07:24:34.684Z,-0.48
2023-02-27T07:26:39.205Z,-0.59
2023-02-27T07:28:42.146Z,-0.49
2023-02-27T07:30:46.825Z,-0.48
2023-02-27T07:32:50.974Z,-0.46
2023-02-27T07:34:54.052Z,-0.41
2023-02-27T07:36:57.003Z,-0.45
2023-02-27T07:39:00.116Z,-0.41
2023-02-27T07:41:02.978Z,-0.40
2023-02-27T07:43:07.470Z,-0.40
2023-02-27T07:45:11.558Z,-0.34
2023-02-27T07:47:14.467Z,-0.33
2023-02-27T07:49:17.477Z,-0.24
2023-02-27T07:51:21.032Z,-0.28
2023-02-27T07:53:24.006Z,-0.26
2023-02-27T07:55:27.097Z,-0.31
2023-02-27T07:57:29.978Z,-0.22
2023-02-27T07:59:34.456Z,-0.19
2023-02-27T08:01:37.331Z,-0.17
2023-02-27T08:03:40.531Z,-0.13
2023-02-27T08:05:43.538Z,-0.13
2023-02-27T08:07:46.508Z,-0.15
2023-02-27T08:09:49.879Z,-0.06
2023-02-27T08:11:52.789Z,-0.01
2023-02-27T08:14:00.444Z,0.09
2023-02-27T08:16:06.554Z,-0.01
2023-02-27T08:18:09.460Z,0.03
2023-02-27T08:20:14.342Z,-0.01
2023-02-27T08:22:17.309Z,0.08
2023-02-27T08:24:20.715Z,0.08
2023-02-27T08:26:24.101Z,0.05
2023-02-27T08:28:28.057Z,0.12
2023-02-27T08:30:30.896Z,0.15
2023-02-27T08:32:35.650Z,0.16
2023-02-27T08:34:38.749Z,0.22
2023-02-27T08:36:42.145Z,0.24
2023-02-27T08:38:45.038Z,0.16
2023-02-27T08:40:48.075Z,0.23
2023-02-27T08:42:52.015Z,0.11
2023-02-27T08:44:55.049Z,0.14
2023-02-27T08:46:57.963Z,0.19
2023-02-27T08:49:02.315Z,0.26
2023-02-27T08:51:05.389Z,0.18
2023-02-27T08:53:08.762Z,0.28
2023-02-27T08:55:12.035Z,0.31
2023-02-27T08:57:15.017Z,0.33
2023-02-27T08:59:18.203Z,0.41
2023-02-27T09:01:21.409Z,0.44
2023-02-27T09:03:28.943Z,0.49
2023-02-27T09:05:35.507Z,0.54
2023-02-27T09:07:38.487Z,0.47
2023-02-27T09:09:41.558Z,0.55
2023-02-27T09:11:46.514Z,0.63
2023-02-27T09:13:49.685Z,0.63
2023-02-27T09:15:52.815Z,0.65
2023-02-27T09:18:03.368Z,0.61
2023-02-27T09:20:09.695Z,0.34
2023-02-27T09:22:14.057Z,0.29
2023-02-27T09:24:20.302Z,0.33
2023-02-27T09:26:38.936Z,0.28
2023-02-27T09:28:43.990Z,0.10
2023-02-27T09:30:47.116Z,-0.10
2023-02-27T09:32:50.243Z,-0.08
2023-02-27T09:34:53.599Z,-0.45
2023-02-27T09:36:59.803Z,-0.50
2023-02-27T09:39:04.631Z,-0.67
2023-02-27T09:41:20.785Z,-0.39
2023-02-27T09:43:28.622Z,-0.51
2023-02-27T09:45:39.546Z,-0.52
2023-02-27T09:47:50.779Z,-0.46
2023-02-27T09:49:59.768Z,-0.37
2023-02-27T09:52:03.091Z,-0.19
2023-02-27T09:54:07.509Z,-0.04
2023-02-27T09:56:17.536Z,0.13
2023-02-27T09:58:31.854Z,0.35
2023-02-27T10:00:47.358Z,0.56
2023-02-27T10:02:58.759Z,0.76
2023-02-27T10:05:08.151Z,1.15
2023-02-27T10:07:17.458Z,1.65
2023-02-27T10:09:32.796Z,1.34
2023-02-27T10:11:47.456Z,1.35
2023-02-27T10:14:00.136Z,1.83
2023-02-27T10:16:05.378Z,2.12
2023-02-27T10:18:26.202Z,2.03
2023-02-27T10:20:33.258Z,2.39
2023-02-27T10:22:41.457Z,2.75
2023-02-27T10:24:49.637Z,2.41
2023-02-27T10:26:54.989Z,2.68
2023-02-27T10:28:59.500Z,3.13
2023-02-27T10:31:02.935Z,3.31
2023-02-27T10:33:10.428Z,3.27
2023-02-27T10:35:27.933Z,2.99
2023-02-27T10:37:31.037Z,2.88
2023-02-27T10:39:45.341Z,2.81
2023-02-27T10:41:51.694Z,2.68
2023-02-27T10:43:57.861Z,2.48
2023-02-27T10:46:02.984Z,2.78
2023-02-27T10:48:06.877Z,2.43
2023-02-27T10:50:23.215Z,2.18
2023-02-27T10:52:26.795Z,2.15
2023-02-27T10:54:29.667Z,2.26
2023-02-27T10:56:32.645Z,2.05
2023-02-27T10:58:38.155Z,2.16
2023-02-27T11:00:43.246Z,1.94
2023-02-27T11:02:50.894Z,2.12
2023-02-27T11:04:55.596Z,1.72
2023-02-27T11:07:00.896Z,1.64
2023-02-27T11:09:19.672Z,1.46
2023-02-27T11:11:28.741Z,1.67
2023-02-27T11:13:33.928Z,1.59
2023-02-27T11:15:39.252Z,1.60
2023-02-27T11:17:43.547Z,1.56
2023-02-27T11:19:46.736Z,1.25
2023-02-27T11:22:01.628Z,1.30
2023-02-27T11:24:09.506Z,1.38
2023-02-27T11:26:27.593Z,1.31
2023-02-27T11:28:31.316Z,1.59
2023-02-27T11:30:35.956Z,1.84
2023-02-27T11:32:44.769Z,1.77
2023-02-27T11:34:50.231Z,1.90
2023-02-27T11:36:55.205Z,1.48
2023-02-27T11:38:58.150Z,1.65
2023-02-27T11:41:02.638Z,2.00
2023-02-27T11:43:17.136Z,2.51
2023-02-27T11:46:05.020Z,2.32
2023-02-27T11:48:01.368Z,2.27
2023-02-27T11:50:43.129Z,2.75
2023-02-27T11:52:53.492Z,2.23
2023-02-27T11:54:59.169Z,2.17
2023-02-27T11:57:05.087Z,2.07
2023-02-27T11:59:24.401Z,2.22
2023-02-27T12:01:32.417Z,1.62
2023-02-27T12:03:46.968Z,1.29
2023-02-27T12:05:53.972Z,1.25
2023-02-27T12:08:02.762Z,1.07
2023-02-27T12:10:12.305Z,1.00
2023-02-27T12:12:21.769Z,0.96
2023-02-27T12:14:31.497Z,0.94
2023-02-27T12:16:39.996Z,0.83
2023-02-27T12:18:50.110Z,0.89
2023-02-27T12:20:57.949Z,1.13
2023-02-27T12:23:04.563Z,1.16
2023-02-27T12:25:14.054Z,1.12
2023-02-27T12:27:22.599Z,1.00
2023-02-27T12:29:32.228Z,1.02
2023-02-27T12:31:50.786Z,0.93
2023-02-27T12:34:01.966Z,1.03
2023-02-27T12:36:10.259Z,0.84
2023-02-27T12:38:15.605Z,0.83
2023-02-27T12:40:19.753Z,0.87
2023-02-27T12:42:47.493Z,1.14
2023-02-27T12:45:08.582Z,1.14
2023-02-27T12:47:24.899Z,1.13
2023-02-27T12:49:42.346Z,1.49
2023-02-27T12:51:58.141Z,1.56
2023-02-27T12:54:18.221Z,1.62
2023-02-27T12:56:24.145Z,1.46
2023-02-27T12:58:44.661Z,1.76
2023-02-27T13:00:50.482Z,1.83
2023-02-27T13:03:04.031Z,1.91
2023-02-27T13:05:27.519Z,1.64
2023-02-27T13:07:36.678Z,1.80
2023-02-27T13:09:45.197Z,1.87
2023-02-27T13:11:58.410Z,2.22
2023-02-27T13:14:03.398Z,2.25
2023-02-27T13:16:12.579Z,2.28
2023-02-27T13:18:31.178Z,2.52
2023-02-27T13:20:46.031Z,2.38
2023-02-27T13:22:57.251Z,1.92
2023-02-27T13:25:05.322Z,2.37
2023-02-27T13:27:16.243Z,2.36
2023-02-27T13:29:22.160Z,1.88
2023-02-27T13:31:38.828Z,1.72
2023-02-27T13:33:48.660Z,1.52
2023-02-27T13:35:59.825Z,1.45
2023-02-27T13:38:06.212Z,1.48
2023-02-27T13:40:29.107Z,1.48
2023-02-27T13:42:52.435Z,1.71
2023-02-27T13:44:56.921Z,1.56
2023-02-27T13:47:50.959Z,1.40
2023-02-27T13:49:54.270Z,1.62
2023-02-27T13:52:02.370Z,1.66
2023-02-27T13:54:18.637Z,1.67
2023-02-27T13:56:24.067Z,1.66
2023-02-27T13:58:27.190Z,1.81
2023-02-27T14:00:32.546Z,1.87
2023-02-27T14:02:59.319Z,1.90
2023-02-27T14:05:06.901Z,2.09
2023-02-27T14:07:19.040Z,2.12
2023-02-27T14:09:23.089Z,1.98
2023-02-27T14:11:28.850Z,1.96
2023-02-27T14:14:01.571Z,2.17
2023-02-27T14:16:05.058Z,1.95
2023-02-27T14:19:01.462Z,2.19
2023-02-27T14:21:04.967Z,2.22
2023-02-27T14:23:21.481Z,1.86
2023-02-27T14:25:32.347Z,1.86
2023-02-27T14:27:49.728Z,1.81
2023-02-27T14:29:56.557Z,2.06
2023-02-27T14:32:02.368Z,1.88
2023-02-27T14:34:06.648Z,1.98
2023-02-27T14:36:15.485Z,1.76
2023-02-27T14:38:21.665Z,1.49
2023-02-27T14:40:32.097Z,1.32
2023-02-27T14:42:48.275Z,1.19
2023-02-27T14:44:51.407Z,1.16
2023-02-27T14:46:56.194Z,1.05
2023-02-27T14:49:00.680Z,1.10
2023-02-27T14:51:03.834Z,0.93
2023-02-27T14:53:07.582Z,1.03
2023-02-27T14:55:18.358Z,1.03
2023-02-27T14:57:23.701Z,0.96
2023-02-27T14:59:28.551Z,0.89
2023-02-27T15:01:36.770Z,1.02
2023-02-27T15:03:44.355Z,0.93
2023-02-27T15:05:48.681Z,0.89
2023-02-27T15:07:54.021Z,0.93
2023-02-27T15:09:58.658Z,0.90
2023-02-27T15:12:04.825Z,0.87
2023-02-27T15:14:08.052Z,0.72
2023-02-27T15:16:38.446Z,0.73
2023-02-27T15:18:42.049Z,0.72
2023-02-27T15:20:45.206Z,0.77
2023-02-27T15:22:48.474Z,0.76
2023-02-27T15:24:51.369Z,0.78
2023-02-27T15:26:57.282Z,0.84
2023-02-27T15:29:02.897Z,0.92
2023-02-27T15:31:05.552Z,0.93
2023-02-27T15:33:15.491Z,0.96
2023-02-27T15:35:22.578Z,0.87
2023-02-27T15:37:28.231Z,0.90
2023-02-27T15:39:34.141Z,0.84
2023-02-27T15:41:37.672Z,0.77
2023-02-27T15:43:41.724Z,0.74
2023-02-27T15:45:48.071Z,0.71
2023-02-27T15:47:51.502Z,0.70
2023-02-27T15:49:59.586Z,0.62
2023-02-27T15:52:05.999Z,0.50
2023-02-27T15:54:10.502Z,0.57
2023-02-27T15:56:15.081Z,0.34
2023-02-27T15:58:25.884Z,0.42
2023-02-27T16:00:30.591Z,0.43
2023-02-27T16:02:42.293Z,0.41
2023-02-27T16:04:47.090Z,0.35
2023-02-27T16:06:55.398Z,0.43
2023-02-27T16:09:00.714Z,0.38
2023-02-27T16:11:04.832Z,0.34
2023-02-27T16:13:32.276Z,0.29
2023-02-27T16:15:36.676Z,0.26
2023-02-27T16:17:53.296Z,0.28
2023-02-27T16:19:58.097Z,0.20
2023-02-27T16:22:06.873Z,0.21
2023-02-27T16:24:20.236Z,0.21
2023-02-27T16:26:32.745Z,0.23
2023-02-27T16:28:42.788Z,0.17
2023-02-27T16:30:45.745Z,0.20
2023-02-27T16:32:57.036Z,0.17
2023-02-27T16:35:06.268Z,0.14
2023-02-27T16:37:20.215Z,0.15
2023-02-27T16:39:23.609Z,0.10
2023-02-27T16:41:28.354Z,0.02
2023-02-27T16:43:33.554Z,-0.04
2023-02-27T16:45:36.512Z,-0.11
2023-02-27T16:47:39.668Z,-0.12
2023-02-27T16:49:45.857Z,-0.13
2023-02-27T16:51:49.536Z,-0.15
2023-02-27T16:53:54.001Z,-0.22
2023-02-27T16:55:56.990Z,-0.19
2023-02-27T16:57:59.860Z,-0.25
2023-02-27T17:00:07.813Z,-0.25
2023-02-27T17:02:15.565Z,-0.35
2023-02-27T17:04:25.705Z,-0.32
2023-02-27T17:06:30.900Z,-0.39
2023-02-27T17:08:34.639Z,-0.39
2023-02-27T17:10:37.845Z,-0.31
2023-02-27T17:12:43.001Z,-0.33
2023-02-27T17:14:46.539Z,-0.40
2023-02-27T17:16:49.526Z,-0.47
2023-02-27T17:18:52.405Z,-0.44
2023-02-27T17:20:57.594Z,-0.43
2023-02-27T17:23:01.790Z,-0.38
2023-02-27T17:25:05.438Z,-0.37
2023-02-27T17:27:08.959Z,-0.38
2023-02-27T17:29:12.449Z,-0.36
2023-02-27T17:31:16.069Z,-0.36
2023-02-27T17:33:18.870Z,-0.37
2023-02-27T17:35:21.727Z,-0.42
2023-02-27T17:37:24.499Z,-0.48
2023-02-27T17:39:29.048Z,-0.56
2023-02-27T17:41:32.701Z,-0.50
2023-02-27T17:43:35.665Z,-0.53
2023-02-27T17:45:39.166Z,-0.58
2023-02-27T17:47:43.340Z,-0.59
2023-02-27T17:49:46.653Z,-0.55
2023-02-27T17:51:49.611Z,-0.55
2023-02-27T17:53:53.106Z,-0.65
2023-02-27T17:55:57.489Z,-0.66
2023-02-27T17:58:00.586Z,-0.68
2023-02-27T18:00:05.099Z,-0.70
2023-02-27T18:02:11.129Z,-0.76
2023-02-27T18:04:14.250Z,-0.78
2023-02-27T18:06:17.459Z,-0.76
2023-02-27T18:08:20.348Z,-0.77
2023-02-27T18:10:23.527Z,-0.76
2023-02-27T18:12:28.118Z,-0.76
2023-02-27T18:14:31.019Z,-0.76
2023-02-27T18:16:34.042Z,-0.74
2023-02-27T18:18:37.876Z,-0.71
2023-02-27T18:20:40.876Z,-0.70
2023-02-27T18:22:43.900Z,-0.68
2023-02-27T18:24:46.754Z,-0.65
2023-02-27T18:26:49.897Z,-0.63
2023-02-27T18:28:54.566Z,-0.61
2023-02-27T18:30:57.961Z,-0.58
2023-02-27T18:33:01.062Z,-0.59
2023-02-27T18:35:04.957Z,-0.53
2023-02-27T18:37:07.907Z,-0.54
2023-02-27T18:39:10.976Z,-0.51
2023-02-27T18:41:14.001Z,-0.64
2023-02-27T18:43:17.018Z,-0.61
2023-02-27T18:45:22.672Z,-0.64
2023-02-27T18:47:25.828Z,-0.64
2023-02-27T18:49:28.738Z,-0.61
2023-02-27T18:51:31.883Z,-0.62
2023-02-27T18:53:35.790Z,-0.68
2023-02-27T18:55:38.797Z,-0.67
2023-02-27T18:57:41.749Z,-0.63
2023-02-27T18:59:46.799Z,-0.59
2023-02-27T19:01:51.317Z,-0.70
2023-02-27T19:04:00.544Z,-0.72
2023-02-27T19:06:03.847Z,-0.73
2023-02-27T19:08:06.974Z,-0.67
2023-02-27T19:10:10.878Z,-0.66
2023-02-27T19:12:13.934Z,-0.63
2023-02-27T19:14:17.016Z,-0.60
2023-02-27T19:16:20.253Z,-0.64
2023-02-27T19:18:24.668Z,-0.66
2023-02-27T19:20:27.729Z,-0.65
2023-02-27T19:22:31.115Z,-0.62
2023-02-27T19:24:34.280Z,-0.58
2023-02-27T19:26:37.193Z,-0.64
2023-02-27T19:28:40.328Z,-0.62
2023-02-27T19:30:43.701Z,-0.60
2023-02-27T19:32:46.720Z,-0.64
2023-02-27T19:34:51.680Z,-0.61
2023-02-27T19:36:54.738Z,-0.60
2023-02-27T19:38:57.918Z,-0.57
2023-02-27T19:41:02.008Z,-0.66
2023-02-27T19:43:04.952Z,-0.72
2023-02-27T19:45:08.498Z,-0.71
2023-02-27T19:47:11.499Z,-0.60
2023-02-27T19:49:14.520Z,-0.62
2023-02-27T19:51:19.168Z,-0.60
2023-02-27T19:53:22.496Z,-0.60
2023-02-27T19:55:25.700Z,-0.64
2023-02-27T19:57:28.905Z,-0.67
2023-02-27T19:59:31.896Z,-0.71
2023-02-27T20:01:36.577Z,-0.68
2023-02-27T20:03:43.769Z,-0.70
2023-02-27T20:05:47.257Z,-0.75
2023-02-27T20:07:53.207Z,-0.78
2023-02-27T20:09:56.536Z,-0.92
2023-02-27T20:12:02.089Z,-0.91
2023-02-27T20:14:04.846Z,-0.92
2023-02-27T20:16:10.056Z,-0.98
2023-02-27T20:18:13.087Z,-1.11
2023-02-27T20:20:16.107Z,-1.09
2023-02-27T20:22:18.948Z,-1.14
2023-02-27T20:24:25.251Z,-1.11
2023-02-27T20:26:31.517Z,-1.06
2023-02-27T20:28:34.495Z,-1.12
2023-02-27T20:30:39.473Z,-1.15
2023-02-27T20:32:43.029Z,-1.13
2023-02-27T20:34:47.946Z,-1.20
2023-02-27T20:36:51.760Z,-1.25
2023-02-27T20:38:54.931Z,-1.23
2023-02-27T20:40:59.654Z,-1.42
2023-02-27T20:43:04.305Z,-1.35
2023-02-27T20:45:08.430Z,-1.34
2023-02-27T20:47:13.866Z,-1.40
2023-02-27T20:49:17.147Z,-1.41
2023-02-27T20:51:22.124Z,-1.45
2023-02-27T20:53:26.298Z,-1.50
2023-02-27T20:55:29.359Z,-1.55
2023-02-27T20:57:33.700Z,-1.68
2023-02-27T20:59:36.690Z,-1.72
2023-02-27T21:01:39.933Z,-1.79
2023-02-27T21:03:45.211Z,-1.83
2023-02-27T21:05:49.263Z,-1.78
2023-02-27T21:07:52.157Z,-1.75
2023-02-27T21:09:55.142Z,-1.76
2023-02-27T21:11:58.132Z,-1.77
2023-02-27T21:14:04.572Z,-1.77
2023-02-27T21:16:09.767Z,-1.76
2023-02-27T21:18:13.571Z,-1.81
2023-02-27T21:20:16.611Z,-1.83
2023-02-27T21:22:19.440Z,-1.82
2023-02-27T21:24:22.552Z,-1.79
2023-02-27T21:26:28.298Z,-1.77
2023-02-27T21:28:31.169Z,-1.81
2023-02-27T21:30:36.494Z,-1.78
2023-02-27T21:32:39.127Z,-1.79
2023-02-27T21:34:42.007Z,-1.82
2023-02-27T21:36:46.056Z,-1.86
2023-02-27T21:38:48.949Z,-1.83
2023-02-27T21:40:51.893Z,-1.87
2023-02-27T21:42:54.888Z,-1.91
2023-02-27T21:44:57.927Z,-1.91
2023-02-27T21:47:10.350Z,-1.99
2023-02-27T21:49:17.239Z,-1.95
2023-02-27T21:51:36.776Z,-1.99
2023-02-27T21:53:42.407Z,-2.02
2023-02-27T21:55:45.286Z,-2.05
2023-02-27T21:57:48.542Z,-2.07
2023-02-27T21:59:51.436Z,-2.16
2023-02-27T22:01:54.428Z,-2.15
2023-02-27T22:03:58.910Z,-2.16
2023-02-27T22:06:02.465Z,-2.17
2023-02-27T22:08:05.467Z,-2.21
2023-02-27T22:10:09.634Z,-2.24
2023-02-27T22:12:14.531Z,-2.30
2023-02-27T22:14:18.710Z,-2.31
2023-02-27T22:16:21.999Z,-2.38
2023-02-27T22:18:26.525Z,-2.41
2023-02-27T22:20:30.827Z,-2.43
2023-02-27T22:22:33.917Z,-2.46
2023-02-27T22:24:37.030Z,-2.46
2023-02-27T22:26:40.153Z,-2.54
2023-02-27T22:28:43.127Z,-2.52
2023-02-27T22:30:46.177Z,-2.62
2023-02-27T22:32:49.425Z,-2.71
2023-02-27T22:34:52.420Z,-2.69
2023-02-27T22:36:56.817Z,-2.64
2023-02-27T22:39:00.152Z,-2.59
2023-02-27T22:41:08.268Z,-2.60
2023-02-27T22:43:12.009Z,-2.66
2023-02-27T22:45:15.291Z,-2.70
2023-02-27T22:47:18.411Z,-2.63
2023-02-27T22:49:22.620Z,-2.61
2023-02-27T22:51:28.119Z,-2.57
2023-02-27T22:53:33.448Z,-2.53
2023-02-27T22:55:36.329Z,-2.50
2023-02-27T22:57:39.205Z,-2.46
2023-02-27T22:59:42.248Z,-2.42
2023-02-27T23:01:45.238Z,-2.43
2023-02-27T23:03:50.435Z,-2.38
2023-02-27T23:05:53.297Z,-2.34
2023-02-27T23:07:56.256Z,-2.35
2023-02-27T23:10:00.867Z,-2.31
2023-02-27T23:12:04.735Z,-2.26
2023-02-27T23:14:08.159Z,-2.21
2023-02-27T23:16:12.724Z,-2.16
2023-02-27T23:18:15.996Z,-2.11
2023-02-27T23:20:19.116Z,-2.06
2023-02-27T23:22:21.956Z,-2.03
2023-02-27T23:24:24.855Z,-1.98
2023-02-27T23:26:29.559Z,-1.95
2023-02-27T23:28:34.064Z,-1.95
2023-02-27T23:30:37.462Z,-1.95
2023-02-27T23:32:46.235Z,-1.89
2023-02-27T23:34:50.029Z,-1.88
2023-02-27T23:36:52.935Z,-1.83
2023-02-27T23:38:57.703Z,-1.84
2023-02-27T23:41:06.695Z,-1.80
2023-02-27T23:43:29.588Z,-1.78
2023-02-27T23:45:32.643Z,-1.75
2023-02-27T23:47:44.855Z,-1.71
2023-02-27T23:49:47.736Z,-1.70
2023-02-27T23:51:50.596Z,-1.68
2023-02-27T23:53:53.427Z,-1.69
2023-02-27T23:55:56.724Z,-1.70
2023-02-27T23:58:01.895Z,-1.74
